Time;durP1;ratioP1;P1;durP2;ratioP2;P2;SDS_P1;SDS_P2;PMS_P1;PMS_P2;Temp;Humidity;BMP_temperature;BMP_pressure;BME280_temperature;BME280_humidity;BME280_pressure;Samples;Min_cycle;Max_cycle;Signal;HPM_P1;HPM_P2
2022/08/23 00:02:13;;;;;;;;;;;;;;;20.26;49.54;100098.47;4949882;29;19961;-86
2022/08/23 00:04:50;;;;;;;;;;;;;;;20.19;49.70;100096.03;4952193;29;19931;-84
2022/08/23 00:07:39;;;;;;;;;;;;;;;20.19;49.99;100093.28;4933345;29;19934;-86
2022/08/23 00:10:10;;;;;;;;;;;;;;;20.17;50.10;100097.41;4951967;29;19966;-85
2022/08/23 00:12:37;;;;;;;;;;;;;;;20.16;50.20;100102.09;4935421;29;19930;-84
2022/08/23 00:15:05;;;;;;;;;;;;;;;20.17;49.98;100105.63;4951730;29;19930;-85
2022/08/23 00:17:32;;;;;;;;;;;;;;;20.19;49.97;100109.72;4949477;28;19930;-82
2022/08/23 00:20:05;;;;;;;;;;;;;;;20.21;49.76;100098.50;4955634;28;19965;-85
2022/08/23 00:22:32;;;;;;;;;;;;;;;20.19;49.86;100109.72;4942907;29;19930;-86
2022/08/23 00:24:59;;;;;;;;;;;;;;;20.18;49.84;100099.88;4946230;29;20428;-86
2022/08/23 00:27:27;;;;;;;;;;;;;;;20.18;49.97;100108.09;4962846;29;19982;-85
2022/08/23 00:29:54;;;;;;;;;;;;;;;20.23;49.89;100112.72;4962469;29;19962;-85
2022/08/23 00:32:22;;;;;;;;;;;;;;;20.27;49.50;100105.59;4961434;29;19937;-83
2022/08/23 00:34:49;;;;;;;;;;;;;;;20.27;49.58;100109.13;4956899;29;20422;-86
2022/08/23 00:37:17;;;;;;;;;;;;;;;20.31;49.29;100112.97;4958567;29;19934;-85
2022/08/23 00:39:43;;;;;;;;;;;;;;;20.33;49.20;100109.91;4956270;29;19960;-84
2022/08/23 00:47:42;;;;;;;;;;;;;;;20.17;49.49;100114.66;4956628;29;19978;-85
2022/08/23 00:50:14;;;;;;;;;;;;;;;20.15;49.65;100111.38;4923832;29;19966;-85
2022/08/23 00:53:08;;;;;;;;;;;;;;;20.07;49.90;100117.44;4940447;29;19931;-86
2022/08/23 00:55:35;;;;;;;;;;;;;;;20.06;49.93;100129.53;4939238;29;19931;-85
2022/08/23 00:58:02;;;;;;;;;;;;;;;20.01;50.15;100124.88;4939291;29;20025;-85
2022/08/23 01:00:30;;;;;;;;;;;;;;;19.94;50.13;100126.28;4956395;29;19938;-84
2022/08/23 01:02:57;;;;;;;;;;;;;;;19.92;50.61;100129.28;4939154;29;19934;-85
2022/08/23 01:05:27;;;;;;;;;;;;;;;19.86;50.53;100128.50;4923634;29;19934;-85
2022/08/23 01:07:55;;;;;;;;;;;;;;;19.85;50.65;100132.34;4939116;29;19986;-85
2022/08/23 01:10:22;;;;;;;;;;;;;;;19.88;50.73;100139.19;4923601;29;19980;-84
2022/08/23 01:12:51;;;;;;;;;;;;;;;19.83;50.81;100142.75;4938785;29;19993;-84
2022/08/23 01:15:20;;;;;;;;;;;;;;;19.78;50.99;100145.50;4939099;29;19930;-85
2022/08/23 01:17:52;;;;;;;;;;;;;;;19.77;51.13;100143.84;4923240;29;19937;-84
2022/08/23 01:20:23;;;;;;;;;;;;;;;19.79;50.99;100143.56;4939311;29;19943;-85
2022/08/23 01:22:59;;;;;;;;;;;;;;;19.77;51.18;100149.31;4938700;29;19956;-85
2022/08/23 01:25:28;;;;;;;;;;;;;;;19.73;51.34;100148.25;4938574;29;19930;-86
2022/08/23 01:27:56;;;;;;;;;;;;;;;19.67;51.50;100154.81;4938672;29;19961;-85
2022/08/23 01:30:24;;;;;;;;;;;;;;;19.65;51.81;100152.34;4938468;29;20385;-84
2022/08/23 01:32:53;;;;;;;;;;;;;;;19.60;51.82;100154.28;4938240;29;19936;-86
2022/08/23 01:35:23;;;;;;;;;;;;;;;19.55;52.19;100157.84;4923015;29;19988;-85
2022/08/23 01:37:53;;;;;;;;;;;;;;;19.57;52.20;100157.53;4907644;29;19970;-85
2022/08/23 01:40:21;;;;;;;;;;;;;;;19.51;52.25;100155.94;4923101;29;20029;-84
2022/08/23 01:42:48;;;;;;;;;;;;;;;19.49;52.52;100154.25;4938503;29;19930;-85
2022/08/23 01:45:15;;;;;;;;;;;;;;;19.47;52.70;100166.59;4938476;29;20300;-85
2022/08/23 01:47:43;;;;;;;;;;;;;;;19.42;52.76;100159.22;4938418;29;19969;-85
2022/08/23 01:50:11;;;;;;;;;;;;;;;19.41;52.84;100160.31;4938505;29;19934;-84
2022/08/23 01:52:39;;;;;;;;;;;;;;;19.40;53.06;100166.88;4955840;29;19938;-85
2022/08/23 01:55:15;;;;;;;;;;;;;;;19.37;52.92;100164.72;4954236;29;19993;-84
2022/08/23 01:57:43;;;;;;;;;;;;;;;19.42;53.15;100163.84;4954233;29;19930;-84
2022/08/23 02:00:16;;;;;;;;;;;;;;;19.39;52.93;100161.69;4923183;29;19937;-84
2022/08/23 02:02:45;;;;;;;;;;;;;;;19.33;53.13;100165.53;4922562;29;19930;-84
2022/08/23 02:05:13;;;;;;;;;;;;;;;19.33;53.15;100171.81;4937860;29;20445;-84
2022/08/23 02:07:45;;;;;;;;;;;;;;;19.32;53.24;100174.81;4923045;29;19941;-85
2022/08/23 02:10:13;;;;;;;;;;;;;;;19.38;53.39;100165.53;4921792;29;20388;-85
2022/08/23 02:12:40;;;;;;;;;;;;;;;19.32;53.16;100164.72;4953880;29;20420;-85
2022/08/23 02:15:32;;;;;;;;;;;;;;;19.24;53.26;100167.97;4940587;29;19930;-84
2022/08/23 02:17:59;;;;;;;;;;;;;;;19.21;53.79;100174.81;4937684;29;19985;-84
2022/08/23 02:20:26;;;;;;;;;;;;;;;19.19;53.63;100173.44;4954772;29;19966;-85
2022/08/23 02:22:53;;;;;;;;;;;;;;;19.17;54.02;100178.41;4953347;29;19930;-85
2022/08/23 02:25:21;;;;;;;;;;;;;;;19.18;53.78;100174.56;4937689;29;19938;-85
2022/08/23 02:27:48;;;;;;;;;;;;;;;19.18;53.88;100177.28;4938025;29;19934;-85
2022/08/23 02:30:15;;;;;;;;;;;;;;;19.17;53.80;100183.88;4937475;29;19937;-86
2022/08/23 02:32:42;;;;;;;;;;;;;;;19.17;54.20;100181.94;4954527;29;19938;-86
2022/08/23 02:35:11;;;;;;;;;;;;;;;19.19;53.88;100181.66;4953106;29;20032;-84
2022/08/23 02:37:38;;;;;;;;;;;;;;;19.23;53.77;100183.56;4954403;29;19930;-85
2022/08/23 02:40:10;;;;;;;;;;;;;;;19.23;53.71;100178.09;4937144;28;19966;-85
2022/08/23 02:42:37;;;;;;;;;;;;;;;19.24;53.93;100189.88;4953100;29;19930;-85
2022/08/23 02:45:07;;;;;;;;;;;;;;;19.28;53.75;100180.03;4953065;29;19931;-85
2022/08/23 02:47:38;;;;;;;;;;;;;;;19.26;53.95;100179.47;4953877;29;19989;-85
2022/08/23 02:50:15;;;;;;;;;;;;;;;19.26;54.02;100187.69;4953579;29;19930;-85
2022/08/23 02:52:43;;;;;;;;;;;;;;;19.27;54.06;100181.94;4953279;29;19961;-85
2022/08/23 02:55:10;;;;;;;;;;;;;;;19.31;54.03;100181.41;4937072;29;19941;-85
2022/08/23 02:57:41;;;;;;;;;;;;;;;19.33;53.98;100181.94;4937322;29;19977;-85
2022/08/23 03:00:11;;;;;;;;;;;;;;;19.34;54.03;100186.31;4953927;29;20480;-85
2022/08/23 03:02:39;;;;;;;;;;;;;;;19.37;53.92;100192.06;4952981;29;19931;-85
2022/08/23 03:05:06;;;;;;;;;;;;;;;19.35;53.89;100194.25;4952747;29;19930;-86
2022/08/23 03:07:33;;;;;;;;;;;;;;;19.35;53.93;100199.75;4954145;29;19935;-84
2022/08/23 03:10:03;;;;;;;;;;;;;;;19.37;53.95;100205.75;4952508;29;19931;-86
2022/08/23 03:12:32;;;;;;;;;;;;;;;19.41;53.84;100201.38;4952711;29;19940;-85
2022/08/23 03:14:59;;;;;;;;;;;;;;;19.42;53.92;100199.44;4936678;29;20058;-86
2022/08/23 03:17:29;;;;;;;;;;;;;;;19.42;54.02;100193.97;4952501;29;20420;-85
2022/08/23 03:19:56;;;;;;;;;;;;;;;19.41;54.07;100195.88;4936446;29;19930;-85
2022/08/23 03:22:23;;;;;;;;;;;;;;;19.44;54.00;100198.06;4957498;28;19935;-85
2022/08/23 03:24:51;;;;;;;;;;;;;;;19.47;54.24;100204.91;4933196;29;19934;-85
2022/08/23 03:27:33;;;;;;;;;;;;;;;19.48;54.23;100207.38;4919371;29;20412;-86
2022/08/23 03:30:10;;;;;;;;;;;;;;;19.49;54.17;100205.47;4917444;29;19931;-85
2022/08/23 03:32:46;;;;;;;;;;;;;;;19.50;54.23;100215.34;4917414;29;19938;-85
2022/08/23 03:35:16;;;;;;;;;;;;;;;19.48;54.29;100215.59;4917255;29;19969;-85
2022/08/23 03:37:43;;;;;;;;;;;;;;;19.53;54.40;100219.44;4917464;29;19931;-85
2022/08/23 03:40:11;;;;;;;;;;;;;;;19.55;54.54;100220.00;4917369;29;19935;-84
2022/08/23 03:42:39;;;;;;;;;;;;;;;19.58;54.53;100216.72;4917643;29;19938;-85
2022/08/23 03:45:06;;;;;;;;;;;;;;;19.59;54.23;100221.06;4917694;29;20029;-87
2022/08/23 03:47:33;;;;;;;;;;;;;;;19.64;54.47;100221.06;4933714;29;19974;-85
2022/08/23 03:50:00;;;;;;;;;;;;;;;19.67;54.54;100224.13;4917197;29;19931;-85
2022/08/23 03:52:28;;;;;;;;;;;;;;;19.71;54.45;100232.59;4917566;29;20026;-85
2022/08/23 03:54:57;;;;;;;;;;;;;;;19.74;54.34;100232.03;4921164;29;20466;-85
2022/08/23 03:57:27;;;;;;;;;;;;;;;19.79;54.30;100228.50;4905663;29;19930;-86
2022/08/23 03:59:54;;;;;;;;;;;;;;;19.81;54.45;100227.13;4921294;29;19938;-86
2022/08/23 04:02:21;;;;;;;;;;;;;;;19.84;54.36;100232.03;4952953;29;20090;-84
2022/08/23 04:04:48;;;;;;;;;;;;;;;19.87;54.30;100231.47;4938170;29;19938;-85
2022/08/23 04:07:51;;;;;;;;;;;;;;;19.89;54.19;100245.72;4919970;29;19939;-85
2022/08/23 04:10:22;;;;;;;;;;;;;;;19.92;54.32;100244.34;4919563;29;19931;-86
2022/08/23 04:12:53;;;;;;;;;;;;;;;19.95;54.31;100242.97;4935541;29;20049;-86
2022/08/23 04:15:21;;;;;;;;;;;;;;;19.99;54.28;100249.56;4935448;29;19931;-85
2022/08/23 04:17:48;;;;;;;;;;;;;;;20.00;54.51;100248.44;4935998;29;19931;-84
2022/08/23 04:20:15;;;;;;;;;;;;;;;20.02;54.40;100249.00;4918228;29;19938;-88
2022/08/23 04:22:59;;;;;;;;;;;;;;;20.07;54.24;100257.19;4927740;23;19933;-86
2022/08/23 04:25:32;;;;;;;;;;;;;;;20.13;54.25;100251.44;4938447;28;19930;-86
2022/08/23 04:28:03;;;;;;;;;;;;;;;20.20;54.14;100250.31;4959418;28;19970;-84
2022/08/23 04:30:31;;;;;;;;;;;;;;;20.26;53.84;100255.53;4969611;28;20404;-87
2022/08/23 04:32:58;;;;;;;;;;;;;;;20.35;53.88;100255.75;4935961;28;20394;-88
2022/08/23 04:35:31;;;;;;;;;;;;;;;20.48;53.77;100257.91;4963244;28;19962;-88
2022/08/23 04:37:59;;;;;;;;;;;;;;;20.58;53.61;100251.59;4950154;28;20033;-86
2022/08/23 04:43:14;;;;;;;;;;;;;;;20.94;52.78;100254.16;4956216;28;19973;-88
2022/08/23 04:45:41;;;;;;;;;;;;;;;21.09;52.57;100254.09;4958918;28;19937;-88
2022/08/23 04:48:26;;;;;;;;;;;;;;;21.31;52.11;100250.91;4958697;28;19937;-87
2022/08/23 04:50:53;;;;;;;;;;;;;;;21.46;51.62;100257.44;4950221;29;19938;-87
2022/08/23 04:53:20;;;;;;;;;;;;;;;21.63;51.19;100255.09;4957615;28;19977;-87
2022/08/23 04:55:58;;;;;;;;;;;;;;;21.71;50.95;100257.22;4955200;28;19931;-85
2022/08/23 04:58:27;;;;;;;;;;;;;;;21.78;50.74;100254.16;4941707;29;19930;-87
2022/08/23 05:00:57;;;;;;;;;;;;;;;21.91;50.64;100260.91;4943742;28;20138;-87
2022/08/23 05:03:26;;;;;;;;;;;;;;;21.97;50.58;100246.78;4948340;28;20151;-89
2022/08/23 05:05:56;;;;;;;;;;;;;;;22.03;49.87;100258.59;4937562;28;19937;-85
2022/08/23 05:08:29;;;;;;;;;;;;;;;22.04;49.64;100258.28;4942005;29;19942;-87
2022/08/23 05:11:03;;;;;;;;;;;;;;;22.11;49.30;100255.19;4942422;28;19993;-87
2022/08/23 05:13:30;;;;;;;;;;;;;;;22.10;49.08;100260.97;4943726;29;19966;-87
2022/08/23 05:16:04;;;;;;;;;;;;;;;22.10;49.19;100263.72;4969264;28;20460;-88
2022/08/23 05:18:39;;;;;;;;;;;;;;;22.12;49.42;100256.00;4948153;28;19940;-87
2022/08/23 05:21:07;;;;;;;;;;;;;;;22.13;49.09;100260.38;4941753;28;20675;-84
2022/08/23 05:23:34;;;;;;;;;;;;;;;22.10;49.10;100275.53;4954126;28;19934;-85
2022/08/23 05:26:10;;;;;;;;;;;;;;;22.14;49.03;100270.28;4967700;28;19930;-87
2022/08/23 05:28:41;;;;;;;;;;;;;;;22.12;49.09;100272.50;4954551;28;20207;-85
2022/08/23 05:31:13;;;;;;;;;;;;;;;22.12;49.09;100267.00;4951896;28;19930;-88
2022/08/23 05:33:47;;;;;;;;;;;;;;;22.17;49.27;100270.50;4951909;28;19931;-87
2022/08/23 05:36:19;;;;;;;;;;;;;;;22.16;49.21;100268.88;4967320;28;19985;-87
2022/08/23 05:38:51;;;;;;;;;;;;;;;22.18;49.28;100272.16;4945756;28;19977;-87
2022/08/23 05:41:19;;;;;;;;;;;;;;;22.25;49.21;100271.84;4983797;28;19930;-90
2022/08/23 05:43:48;;;;;;;;;;;;;;;22.33;49.21;100276.69;4965032;28;19937;-87
2022/08/23 05:46:16;;;;;;;;;;;;;;;22.43;48.87;100265.59;4962478;28;19941;-87
2022/08/23 05:48:53;;;;;;;;;;;;;;;22.65;48.81;100276.03;4964348;28;19937;-86
2022/08/23 05:51:23;;;;;;;;;;;;;;;22.82;48.44;100270.06;4950973;29;19930;-88
2022/08/23 05:53:52;;;;;;;;;;;;;;;22.92;47.86;100267.16;4954686;28;19952;-84
2022/08/23 05:56:30;;;;;;;;;;;;;;;23.00;48.09;100264.91;4961625;28;19972;-86
2022/08/23 05:59:02;;;;;;;;;;;;;;;23.21;48.02;100271.75;4965921;28;19941;-84
2022/08/23 06:01:35;;;;;;;;;;;;;;;23.35;47.70;100275.38;4975042;28;20386;-84
2022/08/23 06:04:11;;;;;;;;;;;;;;;23.38;47.60;100278.66;4962318;28;19955;-86
2022/08/23 06:06:41;;;;;;;;;;;;;;;23.44;47.58;100274.72;4969473;28;19930;-86
2022/08/23 06:09:10;;;;;;;;;;;;;;;23.54;47.21;100285.56;4969038;28;20484;-84
2022/08/23 06:11:37;;;;;;;;;;;;;;;23.68;47.12;100282.88;4950822;28;19933;-84
2022/08/23 06:14:11;;;;;;;;;;;;;;;23.96;46.67;100283.81;4957276;28;19937;-84
2022/08/23 06:16:45;;;;;;;;;;;;;;;24.18;46.40;100281.19;4957778;28;19935;-84
2022/08/23 06:19:17;;;;;;;;;;;;;;;24.44;45.91;100291.72;4966181;28;19985;-88
2022/08/23 06:22:02;;;;;;;;;;;;;;;24.62;45.62;100290.84;4969969;28;19978;-86
2022/08/23 06:24:37;;;;;;;;;;;;;;;24.89;45.57;100291.94;4943867;29;19930;-86
2022/08/23 06:27:10;;;;;;;;;;;;;;;25.21;44.77;100303.97;4945303;29;19931;-86
2022/08/23 06:29:38;;;;;;;;;;;;;;;25.28;44.66;100298.84;4937187;28;19997;-89
2022/08/23 06:32:25;;;;;;;;;;;;;;;25.28;44.17;100299.66;4946335;28;19937;-87
2022/08/23 06:35:11;;;;;;;;;;;;;;;25.26;44.57;100303.84;4971772;28;19937;-91
2022/08/23 06:38:10;;;;;;;;;;;;;;;25.33;44.32;100301.50;4944161;29;19930;-87
2022/08/23 06:40:49;;;;;;;;;;;;;;;25.46;44.01;100300.63;4923044;28;19951;-90
2022/08/23 06:43:25;;;;;;;;;;;;;;;25.61;43.68;100298.63;4963914;28;20029;-85
2022/08/23 06:46:26;;;;;;;;;;;;;;;25.78;43.21;100304.28;4944312;29;19930;-87
2022/08/23 06:48:55;;;;;;;;;;;;;;;25.96;42.93;100304.44;4920977;29;20397;-86
2022/08/23 06:51:22;;;;;;;;;;;;;;;26.20;42.87;100295.75;4950760;28;20389;-87
2022/08/23 06:54:03;;;;;;;;;;;;;;;26.36;42.85;100303.34;4958291;28;20272;-87
2022/08/23 06:56:46;;;;;;;;;;;;;;;26.38;42.42;100297.47;4942266;29;19930;-85
2022/08/23 06:59:18;;;;;;;;;;;;;;;26.59;42.10;100300.53;4951199;28;19930;-86
2022/08/23 07:02:13;;;;;;;;;;;;;;;26.70;42.37;100310.16;4954123;28;20405;-89
2022/08/23 07:04:59;;;;;;;;;;;;;;;26.94;41.75;100303.38;4953392;29;20197;-88
2022/08/23 07:07:42;;;;;;;;;;;;;;;27.18;41.41;100300.19;4953787;29;19937;-88
2022/08/23 07:10:20;;;;;;;;;;;;;;;27.28;41.09;100301.84;4937180;29;20029;-87
2022/08/23 07:13:06;;;;;;;;;;;;;;;27.37;41.09;100295.16;4937162;29;19937;-88
2022/08/23 07:15:47;;;;;;;;;;;;;;;27.48;41.19;100303.16;4921284;29;19981;-88
2022/08/23 07:18:19;;;;;;;;;;;;;;;27.67;40.77;100301.66;4952684;29;19934;-88
2022/08/23 07:20:53;;;;;;;;;;;;;;;27.86;40.23;100304.09;4953158;29;19937;-89
2022/08/23 07:23:24;;;;;;;;;;;;;;;27.98;40.22;100303.44;4961146;28;19934;-88
2022/08/23 07:25:52;;;;;;;;;;;;;;;27.95;39.71;100304.06;4936721;29;19974;-88
2022/08/23 07:28:28;;;;;;;;;;;;;;;27.90;40.57;100300.66;4952609;28;20029;-87
2022/08/23 07:30:58;;;;;;;;;;;;;;;28.03;40.52;100297.72;4953210;29;20428;-87
2022/08/23 07:33:26;;;;;;;;;;;;;;;28.07;40.29;100308.94;4953761;29;20033;-88
2022/08/23 07:36:05;;;;;;;;;;;;;;;28.12;39.64;100308.78;4952576;29;19931;-88
2022/08/23 07:38:34;;;;;;;;;;;;;;;28.02;39.56;100309.94;4937021;29;20464;-88
2022/08/23 07:41:14;;;;;;;;;;;;;;;28.01;39.48;100305.56;4954233;28;19931;-88
2022/08/23 07:43:45;;;;;;;;;;;;;;;28.10;39.60;100300.78;4952841;29;19930;-89
2022/08/23 07:46:18;;;;;;;;;;;;;;;28.18;39.59;100306.63;4953596;28;20054;-89
2022/08/23 07:48:46;;;;;;;;;;;;;;;28.45;39.90;100306.22;4968352;28;19980;-88
2022/08/23 07:51:38;;;;;;;;;;;;;;;28.62;39.00;100301.78;4952243;29;19930;-87
2022/08/23 07:54:09;;;;;;;;;;;;;;;28.64;38.92;100305.84;4953464;28;19938;-89
2022/08/23 07:56:45;;;;;;;;;;;;;;;28.81;38.46;100310.47;4936215;29;20349;-89
2022/08/23 07:59:29;;;;;;;;;;;;;;;28.93;38.16;100302.22;4952288;29;19930;-88
2022/08/23 08:02:22;;;;;;;;;;;;;;;29.02;38.00;100299.41;4952589;29;20425;-89
2022/08/23 08:04:50;;;;;;;;;;;;;;;28.84;37.88;100312.59;4952481;29;19977;-89
2022/08/23 08:07:20;;;;;;;;;;;;;;;28.91;37.77;100318.41;4968290;28;19931;-89
2022/08/23 08:09:56;;;;;;;;;;;;;;;29.27;37.98;100305.13;4952327;29;19952;-89
2022/08/23 08:12:31;;;;;;;;;;;;;;;29.65;37.39;100307.81;4952760;29;19946;-89
2022/08/23 08:15:10;;;;;;;;;;;;;;;29.83;36.81;100302.03;4952093;29;20033;-89
2022/08/23 08:17:40;;;;;;;;;;;;;;;29.91;36.08;100299.19;4968183;28;19930;-88
2022/08/23 08:20:17;;;;;;;;;;;;;;;29.83;35.87;100290.91;4953189;28;20413;-89
2022/08/23 08:23:16;;;;;;;;;;;;;;;29.93;35.83;100298.81;4962903;28;20003;-87
2022/08/23 08:26:05;;;;;;;;;;;;;;;29.99;35.77;100301.06;4951579;29;19934;-89
2022/08/23 08:28:34;;;;;;;;;;;;;;;30.20;35.36;100300.97;4935688;29;19935;-86
2022/08/23 08:31:17;;;;;;;;;;;;;;;30.73;35.03;100305.94;4952129;29;20054;-88
2022/08/23 08:33:57;;;;;;;;;;;;;;;31.11;34.82;100297.19;4968408;28;19970;-88
2022/08/23 08:36:28;;;;;;;;;;;;;;;31.15;34.05;100306.50;4967837;28;19935;-87
2022/08/23 08:38:55;;;;;;;;;;;;;;;31.20;34.16;100305.44;4968541;28;19937;-88
2022/08/23 08:41:47;;;;;;;;;;;;;;;31.53;33.80;100303.25;4956009;29;19945;-89
2022/08/23 08:44:32;;;;;;;;;;;;;;;31.71;33.24;100303.75;4957241;28;19930;-89
2022/08/23 08:46:59;;;;;;;;;;;;;;;31.99;32.39;100300.16;4956406;28;19962;-89
2022/08/23 08:49:44;;;;;;;;;;;;;;;32.26;31.81;100300.44;4956386;29;19930;-88
2022/08/23 08:52:17;;;;;;;;;;;;;;;32.66;31.89;100299.47;4957162;29;19930;-88
2022/08/23 08:54:47;;;;;;;;;;;;;;;33.13;30.84;100307.00;4959303;29;19930;-90
2022/08/23 08:57:26;;;;;;;;;;;;;;;33.44;30.43;100303.25;4964518;29;19958;-88
2022/08/23 09:00:03;;;;;;;;;;;;;;;33.27;30.46;100304.47;4971315;28;19934;-89
2022/08/23 09:02:35;;;;;;;;;;;;;;;33.34;30.85;100303.84;4955307;29;20059;-89
2022/08/23 09:05:18;;;;;;;;;;;;;;;33.73;30.67;100296.28;4954709;29;19930;-88
2022/08/23 09:07:51;;;;;;;;;;;;;;;34.42;29.71;100299.16;4955313;29;20033;-88
2022/08/23 09:10:19;;;;;;;;;;;;;;;34.47;29.33;100290.41;4972000;28;19930;-89
2022/08/23 09:13:25;;;;;;;;;;;;;;;34.65;29.36;100295.53;4955077;29;20366;-89
2022/08/23 09:16:01;;;;;;;;;;;;;;;34.34;28.72;100303.00;4972222;28;20386;-89
2022/08/23 09:18:34;;;;;;;;;;;;;;;34.08;29.24;100289.72;4971202;28;19930;-88
2022/08/23 09:21:10;;;;;;;;;;;;;;;34.37;28.95;100296.66;4971126;28;20445;-87
2022/08/23 09:23:46;;;;;;;;;;;;;;;33.94;28.69;100290.28;4955028;29;19977;-89
2022/08/23 09:26:36;;;;;;;;;;;;;;;33.91;29.21;100293.81;4939767;29;19935;-88
2022/08/23 09:29:23;;;;;;;;;;;;;;;34.29;28.57;100295.72;4970525;28;19935;-88
2022/08/23 09:32:00;;;;;;;;;;;;;;;34.27;28.34;100288.88;4970411;28;19930;-88
2022/08/23 09:34:40;;;;;;;;;;;;;;;34.07;28.52;100293.72;4954568;29;19936;-87
2022/08/23 09:37:13;;;;;;;;;;;;;;;34.10;27.75;100288.19;4954159;29;20033;-87
2022/08/23 09:40:13;;;;;;;;;;;;;;;34.48;27.44;100275.22;4954303;28;19956;-88
2022/08/23 09:43:10;;;;;;;;;;;;;;;34.64;26.77;100283.53;4969858;28;19941;-88
2022/08/23 09:45:39;;;;;;;;;;;;;;;35.02;26.46;100286.44;4938252;29;19966;-87
2022/08/23 09:48:14;;;;;;;;;;;;;;;35.44;25.53;100289.03;4954435;29;19937;-88
2022/08/23 09:50:53;;;;;;;;;;;;;;;35.68;25.73;100278.50;4969093;28;19935;-89
2022/08/23 09:53:30;;;;;;;;;;;;;;;35.44;25.75;100293.84;4954615;29;19936;-88
2022/08/23 09:56:13;;;;;;;;;;;;;;;35.53;25.45;100283.94;4938758;29;20412;-89
2022/08/23 09:58:52;;;;;;;;;;;;;;;35.61;25.46;100293.28;4953757;29;19935;-88
2022/08/23 10:01:34;;;;;;;;;;;;;;;36.02;25.38;100276.44;4954067;29;19957;-86
2022/08/23 10:04:11;;;;;;;;;;;;;;;36.17;25.11;100271.81;4953868;29;19938;-87
2022/08/23 10:06:48;;;;;;;;;;;;;;;36.61;24.71;100270.97;4954422;29;19930;-88
2022/08/23 10:09:22;;;;;;;;;;;;;;;36.63;24.16;100266.56;4953613;29;19953;-88
2022/08/23 10:11:56;;;;;;;;;;;;;;;36.97;23.91;100272.00;4937900;29;19930;-89
2022/08/23 10:14:31;;;;;;;;;;;;;;;37.44;23.84;100264.59;4938236;29;19930;-89
2022/08/23 10:17:03;;;;;;;;;;;;;;;37.47;23.53;100294.75;4938168;29;19937;-87
2022/08/23 10:19:52;;;;;;;;;;;;;;;36.83;23.37;100283.16;4953091;29;20460;-89
2022/08/23 10:22:27;;;;;;;;;;;;;;;36.77;23.52;100274.31;4953254;28;20286;-88
2022/08/23 10:25:24;;;;;;;;;;;;;;;36.71;23.71;100277.88;4929963;29;19941;-87
2022/08/23 10:31:00;;;;;;;;;;;;;;;36.58;22.55;100266.94;4938361;29;19935;-89
2022/08/23 10:33:38;;;;;;;;;;;;;;;36.85;22.14;100272.34;4937475;29;20461;-88
2022/08/23 10:36:19;;;;;;;;;;;;;;;36.60;22.50;100263.75;4937732;29;20416;-89
2022/08/23 10:38:56;;;;;;;;;;;;;;;36.18;23.12;100273.41;4953265;29;19989;-90
2022/08/23 10:41:46;;;;;;;;;;;;;;;35.38;23.32;100265.31;4937740;29;20025;-90
2022/08/23 10:44:34;;;;;;;;;;;;;;;34.62;24.54;100273.88;4953555;29;19930;-88
2022/08/23 10:47:41;;;;;;;;;;;;;;;34.77;24.83;100270.09;4953093;29;19930;-88
2022/08/23 10:50:12;;;;;;;;;;;;;;;34.81;24.90;100265.31;4952993;29;19931;-88
2022/08/23 10:52:47;;;;;;;;;;;;;;;35.33;24.60;100285.31;4922081;29;20052;-87
2022/08/23 10:55:34;;;;;;;;;;;;;;;35.97;24.29;100263.56;4921468;29;20313;-87
2022/08/23 10:58:04;;;;;;;;;;;;;;;36.38;23.83;100288.84;4936891;29;20342;-89
2022/08/23 11:00:34;;;;;;;;;;;;;;;36.92;23.16;100278.00;4931403;29;19937;-87
2022/08/23 11:03:10;;;;;;;;;;;;;;;37.58;22.73;100263.03;4938681;28;20365;-88
2022/08/23 11:05:39;;;;;;;;;;;;;;;36.94;23.21;100269.97;4922345;29;19931;-88
2022/08/23 11:08:35;;;;;;;;;;;;;;;36.44;23.34;100269.63;4925880;28;19930;-86
2022/08/23 11:11:27;;;;;;;;;;;;;;;36.86;22.49;100273.94;4954053;29;19981;-89
2022/08/23 11:13:58;;;;;;;;;;;;;;;37.31;21.38;100263.34;4938290;29;19930;-87
2022/08/23 11:16:29;;;;;;;;;;;;;;;37.70;21.22;100277.59;4937261;29;20435;-86
2022/08/23 11:18:57;;;;;;;;;;;;;;;38.33;20.53;100275.25;4938330;28;19952;-86
2022/08/23 11:21:38;;;;;;;;;;;;;;;38.53;19.87;100274.88;4955606;28;19936;-87
2022/08/23 11:24:08;;;;;;;;;;;;;;;38.48;19.32;100269.63;4969818;28;19942;-87
2022/08/23 11:26:40;;;;;;;;;;;;;;;39.17;19.32;100279.56;4966089;28;19981;-87
2022/08/23 11:29:13;;;;;;;;;;;;;;;39.27;19.64;100261.78;4964725;28;19965;-87
2022/08/23 11:31:50;;;;;;;;;;;;;;;38.94;19.66;100263.13;4958094;28;19984;-88
2022/08/23 11:34:20;;;;;;;;;;;;;;;38.65;20.02;100268.00;4946786;28;20425;-88
2022/08/23 11:37:17;;;;;;;;;;;;;;;38.54;20.61;100268.84;4981527;28;20033;-88
2022/08/23 11:39:58;;;;;;;;;;;;;;;39.21;19.88;100278.34;4948774;29;19930;-88
2022/08/23 11:42:36;;;;;;;;;;;;;;;39.57;19.97;100278.19;4971445;28;19930;-87
2022/08/23 11:45:19;;;;;;;;;;;;;;;39.30;19.78;100279.91;4952570;28;19934;-87
2022/08/23 11:48:34;;;;;;;;;;;;;;;38.64;19.79;100264.38;4897350;29;20028;-89
2022/08/23 11:51:04;;;;;;;;;;;;;;;39.16;19.54;100275.94;4911437;29;19935;-89
2022/08/23 11:53:43;;;;;;;;;;;;;;;39.27;19.65;100275.09;4912818;29;19978;-90
2022/08/23 11:56:28;;;;;;;;;;;;;;;39.11;19.45;100267.91;4897370;29;19931;-88
2022/08/23 11:59:01;;;;;;;;;;;;;;;39.10;19.56;100263.47;4912542;29;20040;-89
2022/08/23 12:01:35;;;;;;;;;;;;;;;38.54;19.82;100268.84;4875885;29;19939;-88
2022/08/23 12:04:09;;;;;;;;;;;;;;;38.35;20.64;100261.56;4915684;28;19930;-87
2022/08/23 12:06:36;;;;;;;;;;;;;;;38.91;20.15;100264.75;4971733;28;19936;-88
2022/08/23 12:09:14;;;;;;;;;;;;;;;39.66;19.20;100275.75;4954274;28;19934;-89
2022/08/23 12:11:53;;;;;;;;;;;;;;;39.49;19.57;100273.81;4936993;28;20389;-87
2022/08/23 12:14:30;;;;;;;;;;;;;;;38.98;20.19;100266.75;4956745;28;19930;-88
2022/08/23 12:16:57;;;;;;;;;;;;;;;39.14;19.88;100269.91;4968840;28;19934;-89
2022/08/23 12:19:33;;;;;;;;;;;;;;;38.58;20.67;100249.88;4972397;28;20313;-90
2022/08/23 12:22:10;;;;;;;;;;;;;;;37.30;21.61;100258.94;4974487;28;19969;-89
2022/08/23 12:24:42;;;;;;;;;;;;;;;36.18;22.53;100262.97;4941019;28;20076;-89
2022/08/23 12:27:28;;;;;;;;;;;;;;;35.45;23.73;100257.00;4940685;29;19953;-89
2022/08/23 12:29:55;;;;;;;;;;;;;;;34.85;24.14;100243.75;4957010;29;19970;-88
2022/08/23 12:32:37;;;;;;;;;;;;;;;35.89;23.05;100249.84;4945060;28;19946;-91
2022/08/23 12:35:05;;;;;;;;;;;;;;;37.87;21.77;100247.03;4967616;28;19930;-89
2022/08/23 12:37:38;;;;;;;;;;;;;;;39.35;20.23;100242.81;4967035;28;19984;-90
2022/08/23 12:40:11;;;;;;;;;;;;;;;40.27;19.58;100241.44;4956320;29;19962;-88
2022/08/23 12:42:38;;;;;;;;;;;;;;;41.00;18.55;100244.34;4939552;29;19931;-90
2022/08/23 12:45:24;;;;;;;;;;;;;;;41.33;18.55;100237.84;4955943;29;19937;-87
2022/08/23 12:47:56;;;;;;;;;;;;;;;41.96;17.73;100242.25;4963666;28;20009;-87
2022/08/23 12:50:25;;;;;;;;;;;;;;;39.99;19.21;100231.13;4926712;29;19930;-88
2022/08/23 12:53:00;;;;;;;;;;;;;;;38.02;20.68;100236.59;4940709;29;19939;-87
2022/08/23 12:55:33;;;;;;;;;;;;;;;36.91;21.73;100237.00;4956845;29;20378;-89
2022/08/23 12:58:00;;;;;;;;;;;;;;;36.40;22.41;100240.69;4961408;28;19985;-90
2022/08/23 13:00:30;;;;;;;;;;;;;;;37.18;21.88;100233.94;4943871;28;19930;-86
2022/08/23 13:03:35;;;;;;;;;;;;;;;38.79;20.40;100240.59;4936647;28;19930;-88
2022/08/23 13:06:06;;;;;;;;;;;;;;;40.05;19.38;100243.59;4929716;29;19938;-88
2022/08/23 13:08:39;;;;;;;;;;;;;;;40.96;18.72;100233.03;4915669;29;19935;-87
2022/08/23 13:11:06;;;;;;;;;;;;;;;41.50;17.97;100223.84;4889676;29;20038;-87
2022/08/23 13:13:36;;;;;;;;;;;;;;;42.07;17.93;100227.91;4902458;29;19968;-87
2022/08/23 13:16:21;;;;;;;;;;;;;;;42.76;16.73;100229.06;4909012;29;20182;-87
2022/08/23 13:18:53;;;;;;;;;;;;;;;42.52;16.72;100231.16;4908833;29;20586;-87
2022/08/23 13:21:23;;;;;;;;;;;;;;;42.56;16.66;100229.03;4900366;29;19935;-88
2022/08/23 13:24:00;;;;;;;;;;;;;;;42.62;16.35;100227.31;4902779;29;20407;-87